Upper Mahantongo, Pennsylvania
Current Conditions -  °F | °C
As of 10:53 AM on Tuesday 21 Oct 2014 (Local Time) from KSEG Reporting Station
Overcast Overcast  
Wind Chill: 55°   Ceiling: 4600
Heat Index: 55°   Visibility: 9mi
Dew Point: 49°   Wind: 0mph
Humidity: 80%   Direction: NA
Pressure: 29.87"   Gusts: NA
Location:  40.6691°N, 76.6267°W
Report Text: KSEG 211453Z AUTO 00000KT 9SM FEW013 BKN046 OVC075 13/09 A2987 RMK AO2 SLP115 T01280094 50003
Loading
Personal Weather Stations






























Interactive Weather Map
Tropical Storm Tracking
New forecast layout! Learn more

10-Day Weather Forecast

Advertisements
Track Severe Weather on mobile